Time;durP1;ratioP1;P1;durP2;ratioP2;P2;SDS_P1;SDS_P2;PMS_P1;PMS_P2;Temp;Humidity;BMP_temperature;BMP_pressure;BME280_temperature;BME280_humidity;BME280_pressure;Samples;Min_cycle;Max_cycle;Signal;HPM_P1;HPM_P2
2022/09/21 00:00:24;;;;;;;0.40;0.10;;;9.00;99.90;;;;;;5014699;28;20048;-72
2022/09/21 00:02:50;;;;;;;0.93;0.15;;;9.00;99.90;;;;;;5050378;28;20044;-73
2022/09/21 00:05:16;;;;;;;0.17;0.10;;;9.10;99.90;;;;;;5049050;28;20036;-72
2022/09/21 00:07:43;;;;;;;0.95;0.17;;;9.00;99.90;;;;;;5050974;28;20068;-72
2022/09/21 00:10:09;;;;;;;1.20;0.22;;;9.00;99.90;;;;;;5047631;28;20052;-72
2022/09/21 00:12:37;;;;;;;1.13;0.32;;;9.00;99.90;;;;;;5031197;28;20037;-72
2022/09/21 00:15:05;;;;;;;0.57;0.35;;;8.90;99.90;;;;;;5050561;28;20037;-72
2022/09/21 00:17:30;;;;;;;0.00;0.00;;;8.90;99.90;;;;;;5047421;28;20053;-72
2022/09/21 00:19:56;;;;;;;0.85;0.30;;;8.90;99.90;;;;;;5046456;28;20044;-72
2022/09/21 00:22:22;;;;;;;0.38;0.20;;;8.90;99.90;;;;;;5050402;28;20055;-72
2022/09/21 00:24:47;;;;;;;0.43;0.10;;;8.90;99.90;;;;;;5032109;28;20053;-72
2022/09/21 00:27:13;;;;;;;1.17;0.32;;;8.80;99.90;;;;;;5048778;28;20064;-72
2022/09/21 00:29:38;;;;;;;2.10;0.35;;;8.80;99.90;;;;;;5032884;28;20037;-72
2022/09/21 00:32:04;;;;;;;0.00;0.00;;;8.80;99.90;;;;;;5048442;28;20041;-72
2022/09/21 00:34:31;;;;;;;0.28;0.17;;;8.80;99.90;;;;;;5050372;28;20040;-72
2022/09/21 00:36:56;;;;;;;0.08;0.05;;;8.80;99.90;;;;;;5048747;28;20636;-71
2022/09/21 00:39:22;;;;;;;1.58;0.15;;;8.70;99.90;;;;;;5047781;28;20108;-72
2022/09/21 00:41:52;;;;;;;0.00;0.00;;;8.70;99.90;;;;;;5049032;28;20036;-71
2022/09/21 00:44:21;;;;;;;2.42;0.38;;;8.70;99.90;;;;;;5030941;28;20045;-72
2022/09/21 00:46:49;;;;;;;0.17;0.17;;;8.70;99.90;;;;;;5048253;28;20133;-72
2022/09/21 00:49:15;;;;;;;1.23;0.45;;;8.70;99.90;;;;;;5047901;28;20037;-72
2022/09/21 00:51:41;;;;;;;0.10;0.10;;;8.70;99.90;;;;;;5047240;28;20044;-72
2022/09/21 00:54:13;;;;;;;0.10;0.10;;;8.70;99.90;;;;;;5030723;28;20037;-72
2022/09/21 00:56:40;;;;;;;0.77;0.32;;;8.70;99.90;;;;;;4994117;28;20120;-72
2022/09/21 00:59:06;;;;;;;12.35;0.40;;;8.60;99.90;;;;;;5035893;28;20067;-71
2022/09/21 01:01:32;;;;;;;0.32;0.20;;;8.60;99.90;;;;;;5048699;28;20045;-72
2022/09/21 01:03:57;;;;;;;0.38;0.10;;;8.60;99.90;;;;;;5049547;28;20099;-72
2022/09/21 01:06:24;;;;;;;0.10;0.10;;;8.60;99.90;;;;;;5047386;28;20044;-71
2022/09/21 01:08:54;;;;;;;0.13;0.10;;;8.50;99.90;;;;;;5029516;28;20061;-71
2022/09/21 01:11:29;;;;;;;0.10;0.00;;;8.40;99.90;;;;;;5030821;28;20581;-71
2022/09/21 01:14:10;;;;;;;0.52;0.20;;;8.40;99.90;;;;;;5019550;28;20037;-72
2022/09/21 01:17:02;;;;;;;0.17;0.15;;;8.30;99.90;;;;;;5046250;28;20086;-72
2022/09/21 01:20:03;;;;;;;0.65;0.20;;;8.30;99.90;;;;;;5049780;28;20056;-72
2022/09/21 01:22:42;;;;;;;0.57;0.30;;;8.30;99.90;;;;;;4947983;28;20058;-71
2022/09/21 01:25:40;;;;;;;0.77;0.30;;;8.30;99.90;;;;;;5036621;28;20047;-71
2022/09/21 01:28:23;;;;;;;0.10;0.10;;;8.30;99.90;;;;;;5047791;28;20410;-71
2022/09/21 01:30:52;;;;;;;0.40;0.20;;;8.20;99.90;;;;;;5047655;28;20080;-71
2022/09/21 01:33:24;;;;;;;0.40;0.13;;;8.30;99.90;;;;;;5048293;28;20082;-71
2022/09/21 01:35:59;;;;;;;0.00;0.00;;;8.20;99.90;;;;;;5046258;28;20079;-72
2022/09/21 01:38:30;;;;;;;0.10;0.10;;;8.20;99.90;;;;;;5048771;28;20044;-71
2022/09/21 01:41:02;;;;;;;0.25;0.10;;;8.20;99.90;;;;;;5045148;28;20491;-72
2022/09/21 01:43:35;;;;;;;0.28;0.20;;;8.20;99.90;;;;;;5047385;28;20048;-71
2022/09/21 01:46:04;;;;;;;0.22;0.10;;;8.10;99.90;;;;;;5044386;28;20498;-71
2022/09/21 01:48:35;;;;;;;0.17;0.17;;;8.10;99.90;;;;;;5047765;28;20037;-72
2022/09/21 01:51:06;;;;;;;3.78;0.43;;;8.10;99.90;;;;;;5045692;28;20034;-71
2022/09/21 01:53:50;;;;;;;0.20;0.10;;;8.10;99.90;;;;;;5049086;28;20090;-72
2022/09/21 01:56:32;;;;;;;0.50;0.20;;;8.10;99.90;;;;;;5013093;28;20510;-71
2022/09/21 01:59:09;;;;;;;0.65;0.17;;;8.10;99.90;;;;;;5047421;28;20036;-71
2022/09/21 02:01:42;;;;;;;0.57;0.30;;;8.10;99.90;;;;;;5046049;28;20041;-72
2022/09/21 02:04:10;;;;;;;0.10;0.10;;;8.00;99.90;;;;;;5048961;28;20402;-72
2022/09/21 02:06:39;;;;;;;0.20;0.20;;;8.00;99.90;;;;;;5046388;28;20491;-71
2022/09/21 02:09:06;;;;;;;0.50;0.08;;;8.00;99.90;;;;;;5045460;28;20576;-71
2022/09/21 02:11:31;;;;;;;0.38;0.20;;;7.90;99.90;;;;;;5047535;28;20029;-72
2022/09/21 02:13:57;;;;;;;0.52;0.20;;;7.90;99.90;;;;;;5044611;28;20043;-72
2022/09/21 02:16:54;;;;;;;0.68;0.20;;;7.90;99.90;;;;;;5044627;28;20037;-72
2022/09/21 02:19:36;;;;;;;1.05;0.30;;;7.90;99.90;;;;;;5031002;28;20442;-72
2022/09/21 02:22:34;;;;;;;0.43;0.30;;;7.90;99.90;;;;;;5046867;28;20437;-72
2022/09/21 02:25:06;;;;;;;0.35;0.20;;;7.90;99.90;;;;;;5047572;28;20053;-72
2022/09/21 02:27:50;;;;;;;0.57;0.40;;;7.90;99.90;;;;;;5027554;28;20036;-72
2022/09/21 02:30:26;;;;;;;1.00;0.35;;;7.90;99.90;;;;;;5047000;28;20049;-72
2022/09/21 02:33:18;;;;;;;0.95;0.20;;;7.90;99.90;;;;;;5046387;28;20033;-72
2022/09/21 02:35:49;;;;;;;0.15;0.05;;;7.90;99.90;;;;;;5028884;28;20071;-71
2022/09/21 02:38:19;;;;;;;5.28;0.35;;;7.90;99.90;;;;;;5050836;28;20045;-72
2022/09/21 02:40:55;;;;;;;2.17;0.25;;;7.80;99.90;;;;;;5052610;28;20069;-72
2022/09/21 02:43:26;;;;;;;0.43;0.17;;;7.80;99.90;;;;;;5047994;28;20041;-72
2022/09/21 02:46:05;;;;;;;0.20;0.20;;;7.80;99.90;;;;;;5032112;28;20049;-72
2022/09/21 02:48:46;;;;;;;0.10;0.10;;;7.80;99.90;;;;;;4998738;28;20030;-72
2022/09/21 02:51:17;;;;;;;0.50;0.22;;;7.80;99.90;;;;;;5050579;28;20044;-71
2022/09/21 02:53:45;;;;;;;0.05;0.05;;;7.70;99.90;;;;;;5050962;28;20029;-72
2022/09/21 02:56:12;;;;;;;0.43;0.20;;;7.70;99.90;;;;;;5052349;28;20041;-72
2022/09/21 02:58:42;;;;;;;0.50;0.10;;;7.70;99.90;;;;;;5051121;28;20040;-72
2022/09/21 03:01:11;;;;;;;0.60;0.20;;;7.70;99.90;;;;;;5049755;28;20048;-72
2022/09/21 03:03:36;;;;;;;1.40;0.30;;;7.80;99.90;;;;;;5036998;28;20037;-72
2022/09/21 03:06:02;;;;;;;1.10;0.30;;;7.70;99.90;;;;;;5048281;28;20123;-71
2022/09/21 03:08:29;;;;;;;0.20;0.10;;;7.70;99.90;;;;;;5029106;28;20049;-72
2022/09/21 03:10:56;;;;;;;0.10;0.10;;;7.60;99.90;;;;;;5058717;28;20041;-72
2022/09/21 03:13:22;;;;;;;0.50;0.20;;;7.60;99.90;;;;;;5051248;28;20037;-72
2022/09/21 03:15:48;;;;;;;0.47;0.28;;;7.60;99.90;;;;;;5051396;28;20047;-72
2022/09/21 03:18:14;;;;;;;0.20;0.10;;;7.60;99.90;;;;;;5049636;28;20037;-72
2022/09/21 03:20:46;;;;;;;0.40;0.20;;;7.60;99.90;;;;;;5049206;28;20045;-72
2022/09/21 03:23:12;;;;;;;0.20;0.15;;;7.60;99.90;;;;;;5049533;28;20417;-72
2022/09/21 03:25:38;;;;;;;0.82;0.32;;;7.60;99.90;;;;;;5050923;28;20037;-72
2022/09/21 03:28:04;;;;;;;0.45;0.15;;;7.60;99.90;;;;;;5051627;28;20039;-72
2022/09/21 03:30:31;;;;;;;1.95;0.47;;;7.60;99.90;;;;;;5049800;28;20056;-72
2022/09/21 03:32:57;;;;;;;3.25;0.35;;;7.60;99.90;;;;;;5050204;28;20040;-72
2022/09/21 03:35:25;;;;;;;0.13;0.13;;;7.60;99.90;;;;;;5048006;28;20044;-72
2022/09/21 03:37:51;;;;;;;1.17;0.47;;;7.50;99.90;;;;;;5032074;28;20498;-72
2022/09/21 03:40:18;;;;;;;0.60;0.28;;;7.50;99.90;;;;;;5051368;28;20060;-72
2022/09/21 03:42:44;;;;;;;0.30;0.10;;;7.40;99.90;;;;;;5047832;28;20514;-72
2022/09/21 03:45:10;;;;;;;0.22;0.15;;;7.40;99.90;;;;;;5047190;28;20447;-72
2022/09/21 03:47:38;;;;;;;0.60;0.28;;;7.40;99.90;;;;;;5049642;28;20407;-72
2022/09/21 03:50:05;;;;;;;0.75;0.20;;;7.40;99.90;;;;;;5028427;28;20128;-72
2022/09/21 03:52:30;;;;;;;2.53;0.40;;;7.40;99.90;;;;;;5033325;28;20049;-72
2022/09/21 03:54:57;;;;;;;0.20;0.10;;;7.40;99.90;;;;;;5048352;28;20052;-72
2022/09/21 03:57:23;;;;;;;1.02;0.28;;;7.40;99.90;;;;;;5050528;28;20119;-72
2022/09/21 03:59:48;;;;;;;0.43;0.20;;;7.40;99.90;;;;;;5050554;28;20053;-72
2022/09/21 04:02:15;;;;;;;1.20;0.30;;;7.30;99.90;;;;;;5047994;28;20043;-72
2022/09/21 04:04:41;;;;;;;0.75;0.30;;;7.30;99.90;;;;;;5048579;28;20494;-72
2022/09/21 04:07:06;;;;;;;0.17;0.10;;;7.20;99.90;;;;;;5048571;28;20040;-72
2022/09/21 04:09:32;;;;;;;0.73;0.20;;;7.20;99.90;;;;;;5048732;28;20049;-72
2022/09/21 04:11:58;;;;;;;0.10;0.10;;;7.20;99.90;;;;;;5049811;28;20033;-72
2022/09/21 04:14:24;;;;;;;0.52;0.30;;;7.20;99.90;;;;;;5048621;28;20029;-72
2022/09/21 04:16:52;;;;;;;0.50;0.25;;;7.20;99.90;;;;;;5049871;28;20037;-72
2022/09/21 04:19:18;;;;;;;0.30;0.25;;;7.20;99.90;;;;;;5047472;28;20103;-72
2022/09/21 04:21:44;;;;;;;0.50;0.25;;;7.10;99.90;;;;;;5049083;28;20482;-72
2022/09/21 04:24:09;;;;;;;2.60;0.40;;;7.10;99.90;;;;;;5048095;28;20037;-72
2022/09/21 04:26:35;;;;;;;2.15;0.20;;;7.10;99.90;;;;;;5048730;28;20086;-72
2022/09/21 04:29:02;;;;;;;0.47;0.20;;;7.10;99.90;;;;;;5050024;28;20499;-72
2022/09/21 04:31:28;;;;;;;0.20;0.10;;;7.10;99.90;;;;;;5050166;28;20660;-72
2022/09/21 04:33:55;;;;;;;0.70;0.15;;;7.10;99.90;;;;;;5046632;28;20070;-72
2022/09/21 04:36:23;;;;;;;0.10;0.10;;;7.10;99.90;;;;;;5031877;28;20103;-72
2022/09/21 04:38:49;;;;;;;0.65;0.30;;;7.10;99.90;;;;;;5037857;28;20045;-72
2022/09/21 04:41:16;;;;;;;0.43;0.20;;;7.10;99.90;;;;;;5047022;28;20036;-72
2022/09/21 04:43:44;;;;;;;0.75;0.40;;;7.10;99.90;;;;;;5049442;28;20509;-72
2022/09/21 04:46:12;;;;;;;0.55;0.20;;;7.10;99.90;;;;;;5048482;28;20045;-72
2022/09/21 04:48:38;;;;;;;0.70;0.32;;;7.10;99.90;;;;;;5048740;28;20043;-72
2022/09/21 04:51:06;;;;;;;0.13;0.10;;;7.10;99.90;;;;;;5048074;28;20044;-72
2022/09/21 04:53:32;;;;;;;0.93;0.38;;;7.10;99.90;;;;;;5045111;28;20069;-72
2022/09/21 04:55:58;;;;;;;2.67;0.25;;;7.10;99.90;;;;;;5049940;28;20095;-72
2022/09/21 04:58:24;;;;;;;2.50;0.57;;;7.10;99.90;;;;;;5048667;28;20503;-72
2022/09/21 05:00:56;;;;;;;0.52;0.30;;;7.00;99.90;;;;;;5047976;28;20041;-72
2022/09/21 05:03:23;;;;;;;0.93;0.20;;;6.90;99.90;;;;;;5030506;28;20041;-72
2022/09/21 05:05:51;;;;;;;0.60;0.35;;;6.90;99.90;;;;;;5047227;28;20430;-72
2022/09/21 05:10:01;;;;;;;0.43;0.20;;;6.90;99.90;;;;;;5030493;28;20635;-72
2022/09/21 05:11:04;;;;;;;;;;;6.90;99.90;;;;;;5048044;28;20120;-72
2022/09/21 05:13:29;;;;;;;0.77;0.30;;;6.90;99.90;;;;;;5049497;28;20294;-72
2022/09/21 05:15:55;;;;;;;0.85;0.20;;;6.90;99.90;;;;;;5030267;28;20051;-72
2022/09/21 05:18:20;;;;;;;0.40;0.20;;;6.90;99.90;;;;;;5046679;28;20127;-72
2022/09/21 05:20:53;;;;;;;5.15;0.70;;;6.90;99.90;;;;;;5046664;28;20072;-72
2022/09/21 05:23:19;;;;;;;2.65;0.50;;;6.90;99.90;;;;;;5046133;28;20068;-72
2022/09/21 05:25:45;;;;;;;0.50;0.30;;;6.90;99.90;;;;;;5047729;28;20079;-72
2022/09/21 05:28:10;;;;;;;1.02;0.52;;;6.90;99.90;;;;;;5030659;28;20072;-72
2022/09/21 05:30:36;;;;;;;0.80;0.25;;;6.90;99.90;;;;;;5049092;28;20037;-72
2022/09/21 05:33:03;;;;;;;0.40;0.22;;;6.90;99.90;;;;;;5046029;28;20040;-72
2022/09/21 05:36:16;;;;;;;1.58;0.17;;;6.90;99.90;;;;;;5028332;28;20060;-72
2022/09/21 05:38:42;;;;;;;0.30;0.10;;;6.90;99.90;;;;;;5043882;28;20508;-69
2022/09/21 05:41:08;;;;;;;6.75;0.30;;;6.90;99.90;;;;;;5046799;28;20602;-72
2022/09/21 05:43:34;;;;;;;0.10;0.10;;;6.90;99.90;;;;;;5046738;28;20163;-72
2022/09/21 05:46:18;;;;;;;5.03;0.40;;;6.90;99.90;;;;;;5045063;28;20482;-72
2022/09/21 05:48:57;;;;;;;0.88;0.35;;;6.90;99.90;;;;;;5049137;28;20037;-72
2022/09/21 05:51:35;;;;;;;0.80;0.28;;;6.90;99.90;;;;;;5026440;28;20040;-72
2022/09/21 05:54:14;;;;;;;0.47;0.20;;;6.90;99.90;;;;;;5042330;28;20103;-72
2022/09/21 05:56:47;;;;;;;0.20;0.10;;;6.90;99.90;;;;;;5043673;28;20502;-72
2022/09/21 05:59:35;;;;;;;0.28;0.17;;;6.90;99.90;;;;;;5040910;28;20624;-72
2022/09/21 06:02:17;;;;;;;0.20;0.20;;;6.90;99.90;;;;;;5038685;28;20139;-72
2022/09/21 06:04:43;;;;;;;0.43;0.10;;;6.90;99.90;;;;;;5043622;28;20430;-72
2022/09/21 06:07:08;;;;;;;0.73;0.30;;;7.00;99.90;;;;;;5043469;28;20068;-73
2022/09/21 06:09:34;;;;;;;0.47;0.30;;;7.00;99.90;;;;;;5041305;28;20061;-72
2022/09/21 06:12:01;;;;;;;1.27;0.30;;;7.00;99.90;;;;;;5040008;28;20048;-72
2022/09/21 06:14:27;;;;;;;1.42;0.20;;;7.00;99.90;;;;;;5040674;28;20032;-71
2022/09/21 06:16:53;;;;;;;1.75;0.40;;;7.00;99.90;;;;;;5022950;28;20048;-68
2022/09/21 06:19:18;;;;;;;0.75;0.20;;;7.00;99.90;;;;;;5041231;28;20048;-72
2022/09/21 06:21:44;;;;;;;1.45;0.40;;;7.00;99.90;;;;;;5044956;28;20033;-72
2022/09/21 06:24:10;;;;;;;0.30;0.10;;;7.00;99.90;;;;;;5043418;28;20060;-72
2022/09/21 06:26:36;;;;;;;0.43;0.10;;;7.00;99.90;;;;;;5037607;28;20080;-73
2022/09/21 06:29:02;;;;;;;0.85;0.45;;;7.10;99.90;;;;;;5043720;28;20063;-73
2022/09/21 06:31:28;;;;;;;2.17;0.55;;;7.00;99.90;;;;;;5046860;28;20112;-72
2022/09/21 06:33:54;;;;;;;2.47;0.47;;;7.10;99.90;;;;;;5048395;28;20041;-71
2022/09/21 06:36:20;;;;;;;0.20;0.20;;;7.10;99.90;;;;;;5046452;28;20049;-71
2022/09/21 06:38:46;;;;;;;7.88;0.52;;;7.20;99.90;;;;;;5046007;28;20531;-71
2022/09/21 06:41:11;;;;;;;0.73;0.40;;;7.20;99.90;;;;;;5045793;28;20040;-71
2022/09/21 06:43:37;;;;;;;6.93;0.32;;;7.30;99.90;;;;;;5013122;28;20059;-71
2022/09/21 06:46:03;;;;;;;0.55;0.20;;;7.30;99.90;;;;;;5046089;28;20045;-71
2022/09/21 06:48:31;;;;;;;1.15;0.25;;;7.30;99.90;;;;;;5028907;28;20055;-71
2022/09/21 06:51:01;;;;;;;0.85;0.47;;;7.30;99.90;;;;;;5046147;28;20049;-71
2022/09/21 06:53:28;;;;;;;1.20;0.32;;;7.40;99.90;;;;;;5045706;28;20087;-71
2022/09/21 06:56:08;;;;;;;0.60;0.38;;;7.50;99.90;;;;;;5045351;28;20367;-72
2022/09/21 06:58:35;;;;;;;2.08;0.60;;;7.50;99.90;;;;;;5027832;28;20522;-72
2022/09/21 07:01:08;;;;;;;0.28;0.20;;;7.60;99.90;;;;;;5043862;28;20041;-72
2022/09/21 07:03:34;;;;;;;0.82;0.50;;;7.70;99.90;;;;;;5044540;28;20078;-81
2022/09/21 07:06:00;;;;;;;1.55;0.47;;;7.70;99.90;;;;;;5042101;28;20049;-71
2022/09/21 07:08:25;;;;;;;2.63;0.50;;;7.80;99.90;;;;;;5046801;28;20081;-71
2022/09/21 07:10:52;;;;;;;0.98;0.40;;;7.90;99.90;;;;;;5022453;28;20128;-71
2022/09/21 07:13:17;;;;;;;0.35;0.28;;;8.00;99.90;;;;;;5033231;28;20399;-71
2022/09/21 07:15:43;;;;;;;1.45;0.57;;;8.10;99.90;;;;;;5008516;28;20481;-71
2022/09/21 07:18:11;;;;;;;0.80;0.28;;;8.10;99.90;;;;;;5045422;28;20471;-71
2022/09/21 07:20:36;;;;;;;6.30;1.02;;;8.20;99.90;;;;;;5042752;28;20112;-72
2022/09/21 07:23:10;;;;;;;0.30;0.30;;;8.30;99.90;;;;;;5047146;28;20055;-72
2022/09/21 07:25:36;;;;;;;0.40;0.30;;;8.30;99.90;;;;;;5045561;28;20103;-72
2022/09/21 07:28:02;;;;;;;1.13;0.52;;;8.40;99.90;;;;;;5047148;28;20037;-71
2022/09/21 07:30:27;;;;;;;1.00;0.47;;;8.50;99.90;;;;;;5046174;28;20036;-71
2022/09/21 07:32:53;;;;;;;1.67;0.40;;;8.50;99.90;;;;;;5023573;28;20449;-71
2022/09/21 07:35:19;;;;;;;2.08;0.55;;;8.60;99.90;;;;;;5045881;28;20687;-71
2022/09/21 07:37:44;;;;;;;3.55;0.43;;;8.70;99.90;;;;;;5047089;28;20130;-71
2022/09/21 07:40:10;;;;;;;0.65;0.40;;;8.80;99.90;;;;;;5041228;28;20164;-72
2022/09/21 07:42:36;;;;;;;1.23;0.30;;;8.80;99.90;;;;;;5026243;28;20103;-71
2022/09/21 07:45:01;;;;;;;1.95;0.40;;;8.90;99.90;;;;;;5045536;28;20036;-71
2022/09/21 07:47:27;;;;;;;1.13;0.45;;;9.00;99.90;;;;;;5043100;28;20036;-71
2022/09/21 07:49:53;;;;;;;7.32;0.60;;;9.10;99.90;;;;;;5043938;28;20461;-71
2022/09/21 07:52:18;;;;;;;0.60;0.43;;;9.10;99.90;;;;;;5044065;28;20040;-71
2022/09/21 07:54:44;;;;;;;1.25;0.20;;;9.20;99.90;;;;;;5026448;28;20057;-71
2022/09/21 07:59:57;;;;;;;3.60;0.60;;;9.30;99.90;;;;;;5027462;28;20131;-71
2022/09/21 08:02:23;;;;;;;0.35;0.17;;;9.40;99.90;;;;;;5044521;28;20037;-71
2022/09/21 08:04:49;;;;;;;0.52;0.20;;;9.40;99.90;;;;;;5045976;28;20102;-71
2022/09/21 08:07:14;;;;;;;0.52;0.32;;;9.60;99.90;;;;;;5024181;28;20470;-71
2022/09/21 08:09:40;;;;;;;1.65;0.30;;;9.60;99.90;;;;;;5029545;28;20099;-71
2022/09/21 08:12:07;;;;;;;7.43;0.82;;;9.80;99.90;;;;;;5043010;28;20037;-71
2022/09/21 08:14:34;;;;;;;1.30;0.30;;;9.80;99.90;;;;;;5052887;28;20037;-71
2022/09/21 08:17:00;;;;;;;1.30;0.55;;;9.90;99.90;;;;;;5047646;28;20173;-71
2022/09/21 08:19:25;;;;;;;2.63;0.30;;;10.00;99.90;;;;;;5045393;28;20163;-71
2022/09/21 08:21:52;;;;;;;3.05;0.20;;;10.10;99.90;;;;;;5040745;28;20041;-72
2022/09/21 08:24:18;;;;;;;1.13;0.22;;;10.10;99.90;;;;;;5039137;28;20091;-71
2022/09/21 08:26:44;;;;;;;1.50;0.20;;;10.20;99.90;;;;;;5049976;28;20108;-71
2022/09/21 08:29:12;;;;;;;0.35;0.17;;;10.20;99.90;;;;;;5047569;28;20115;-71
2022/09/21 08:31:37;;;;;;;0.68;0.20;;;10.30;99.90;;;;;;5043831;28;20511;-70
2022/09/21 08:34:03;;;;;;;0.70;0.10;;;10.40;99.90;;;;;;5046047;28;20090;-67
2022/09/21 08:36:28;;;;;;;0.65;0.38;;;10.40;99.90;;;;;;5041949;28;20072;-71
2022/09/21 08:38:55;;;;;;;0.68;0.40;;;10.50;99.90;;;;;;5043092;28;20036;-72
2022/09/21 08:41:30;;;;;;;0.30;0.20;;;10.50;99.90;;;;;;5041310;28;20526;-71
2022/09/21 08:44:02;;;;;;;1.37;0.30;;;10.50;99.90;;;;;;5042770;28;20047;-71
2022/09/21 08:46:29;;;;;;;0.20;0.20;;;10.70;99.90;;;;;;5052156;28;20308;-72
2022/09/21 08:49:13;;;;;;;0.85;0.30;;;10.70;99.90;;;;;;5008719;28;20036;-72
2022/09/21 08:51:50;;;;;;;0.20;0.13;;;10.80;99.90;;;;;;5041534;28;20407;-71
2022/09/21 08:54:27;;;;;;;2.20;0.43;;;10.80;99.90;;;;;;5046722;28;20437;-71
2022/09/21 08:56:53;;;;;;;0.43;0.20;;;10.80;99.90;;;;;;5041758;28;20040;-71
2022/09/21 08:59:19;;;;;;;2.05;0.38;;;10.90;99.90;;;;;;5040726;28;20040;-71
2022/09/21 09:01:50;;;;;;;2.28;0.50;;;11.00;99.90;;;;;;5044699;28;20051;-69
2022/09/21 09:04:30;;;;;;;0.38;0.20;;;11.00;99.90;;;;;;5043509;28;20041;-71
2022/09/21 09:07:02;;;;;;;0.15;0.10;;;11.10;99.90;;;;;;5039744;28;20040;-71
2022/09/21 09:10:14;;;;;;;1.40;0.50;;;11.10;99.90;;;;;;5040273;28;20057;-70
2022/09/21 09:13:12;;;;;;;0.70;0.30;;;11.10;99.90;;;;;;4998574;28;20050;-71
2022/09/21 09:16:00;;;;;;;0.28;0.20;;;11.20;99.90;;;;;;5037569;28;20526;-71
2022/09/21 09:18:43;;;;;;;0.65;0.20;;;11.30;99.90;;;;;;5024270;28;20060;-71
2022/09/21 09:21:15;;;;;;;0.40;0.20;;;11.40;99.90;;;;;;5008609;28;20045;-71
2022/09/21 09:23:48;;;;;;;6.85;0.60;;;11.40;99.90;;;;;;5027214;28;20055;-71
2022/09/21 09:26:23;;;;;;;0.80;0.10;;;11.50;99.90;;;;;;5043992;28;20037;-71
2022/09/21 09:29:00;;;;;;;0.30;0.20;;;11.50;99.90;;;;;;5043366;28;20077;-71
2022/09/21 09:31:34;;;;;;;0.13;0.10;;;11.60;99.90;;;;;;5017545;28;20087;-71
2022/09/21 09:34:09;;;;;;;0.82;0.30;;;11.60;99.90;;;;;;5042115;28;20098;-71
2022/09/21 09:36:37;;;;;;;2.88;0.22;;;11.60;99.90;;;;;;5040039;28;20067;-72
2022/09/21 09:39:12;;;;;;;0.80;0.28;;;11.70;99.90;;;;;;5038027;28;20048;-71
2022/09/21 09:41:47;;;;;;;;;;;11.80;99.90;;;;;;5044364;28;20040;-71
2022/09/21 09:44:30;;;;;;;0.10;0.10;;;11.80;99.90;;;;;;5040917;28;19999;-71
2022/09/21 09:47:33;;;;;;;0.32;0.20;;;11.90;99.90;;;;;;5039723;28;20056;-71
2022/09/21 09:50:21;;;;;;;1.25;0.20;;;12.00;99.90;;;;;;5044426;28;20064;-71
2022/09/21 09:52:53;;;;;;;0.57;0.15;;;12.10;99.90;;;;;;5043237;28;20041;-71
2022/09/21 09:55:25;;;;;;;6.55;0.65;;;12.20;99.90;;;;;;5026495;28;20091;-72
2022/09/21 09:57:53;;;;;;;1.23;0.10;;;12.20;99.90;;;;;;5026143;28;20505;-71
2022/09/21 10:00:20;;;;;;;3.22;0.28;;;12.20;99.90;;;;;;5042828;28;20525;-71
2022/09/21 10:02:51;;;;;;;0.20;0.10;;;12.20;99.90;;;;;;5044327;28;20025;-71
2022/09/21 10:05:33;;;;;;;0.43;0.17;;;12.30;99.90;;;;;;5040605;28;20036;-71
2022/09/21 10:07:59;;;;;;;2.40;0.28;;;12.20;99.90;;;;;;5043434;28;20077;-71
2022/09/21 10:10:28;;;;;;;0.30;0.13;;;12.20;99.90;;;;;;5043608;28;20037;-71
2022/09/21 10:12:56;;;;;;;2.10;0.20;;;12.30;99.90;;;;;;5031199;28;20513;-72
2022/09/21 10:15:25;;;;;;;0.43;0.22;;;12.30;99.90;;;;;;5001490;28;20045;-71
2022/09/21 10:18:21;;;;;;;0.30;0.17;;;12.40;99.90;;;;;;5044178;28;20536;-71
2022/09/21 10:20:54;;;;;;;0.55;0.00;;;12.40;99.90;;;;;;5038423;28;20531;-71
2022/09/21 10:23:19;;;;;;;1.15;0.20;;;12.40;99.90;;;;;;5024085;28;20072;-71
2022/09/21 10:25:53;;;;;;;0.10;0.10;;;12.50;99.90;;;;;;5024086;28;20084;-71
2022/09/21 10:28:20;;;;;;;1.67;0.30;;;12.50;99.90;;;;;;5022314;28;20103;-71
2022/09/21 10:30:47;;;;;;;1.23;0.10;;;12.60;99.90;;;;;;5042397;28;20053;-71
2022/09/21 10:33:20;;;;;;;0.32;0.15;;;12.60;99.90;;;;;;5008653;28;20037;-71
2022/09/21 10:35:51;;;;;;;1.00;0.20;;;12.60;99.90;;;;;;5044817;28;20519;-71
2022/09/21 10:38:19;;;;;;;1.42;0.17;;;12.60;99.90;;;;;;5024801;28;20509;-71
2022/09/21 10:40:46;;;;;;;2.17;0.32;;;12.70;99.90;;;;;;5039786;28;20048;-71
2022/09/21 10:43:43;;;;;;;1.55;0.20;;;12.70;99.90;;;;;;5042225;28;20041;-71
2022/09/21 10:46:09;;;;;;;;;;;12.80;99.90;;;;;;5029005;28;20081;-71
2022/09/21 10:48:35;;;;;;;0.10;0.10;;;12.70;99.90;;;;;;5044129;28;21491;-71
2022/09/21 10:51:02;;;;;;;0.95;0.10;;;12.70;99.90;;;;;;5041732;28;20033;-71
2022/09/21 10:53:30;;;;;;;0.47;0.10;;;12.80;99.90;;;;;;5041335;28;20032;-71
2022/09/21 10:56:02;;;;;;;1.13;0.20;;;12.90;99.90;;;;;;5045045;28;20406;-71
2022/09/21 10:58:28;;;;;;;0.10;0.05;;;12.90;99.90;;;;;;5044798;28;20047;-71
2022/09/21 11:00:55;;;;;;;0.35;0.10;;;13.00;99.90;;;;;;5021582;28;20042;-71
2022/09/21 11:03:32;;;;;;;0.22;0.10;;;13.10;99.90;;;;;;5049801;28;20055;-71
2022/09/21 11:06:05;;;;;;;1.20;0.10;;;13.10;99.90;;;;;;5048810;28;20287;-71
2022/09/21 11:08:48;;;;;;;0.47;0.13;;;13.20;99.90;;;;;;5028266;28;20125;-71
2022/09/21 11:11:57;;;;;;;0.47;0.20;;;13.20;99.90;;;;;;5028579;28;20116;-71
2022/09/21 11:14:50;;;;;;;0.38;0.10;;;13.20;99.90;;;;;;4992255;28;20048;-71
2022/09/21 11:17:56;;;;;;;0.75;0.20;;;13.20;99.90;;;;;;5043996;28;20094;-71
2022/09/21 11:20:45;;;;;;;0.77;0.15;;;13.20;99.90;;;;;;4946827;28;20122;-71
2022/09/21 11:23:38;;;;;;;0.60;0.30;;;13.10;99.90;;;;;;4932651;28;20101;-71
2022/09/21 11:26:22;;;;;;;4.57;0.35;;;13.20;99.90;;;;;;5007855;28;20531;-74
2022/09/21 11:29:05;;;;;;;0.68;0.20;;;13.30;99.90;;;;;;5046621;28;20029;-71
2022/09/21 11:32:03;;;;;;;3.53;0.20;;;13.50;99.90;;;;;;5040478;28;20075;-70
2022/09/21 11:34:47;;;;;;;1.38;0.22;;;13.50;99.90;;;;;;5041108;28;20040;-71
2022/09/21 11:38:03;;;;;;;0.20;0.10;;;13.60;99.90;;;;;;5044308;28;20507;-71
2022/09/21 11:41:00;;;;;;;3.83;0.57;;;13.60;99.90;;;;;;4962185;28;20054;-71
2022/09/21 11:43:44;;;;;;;0.77;0.40;;;13.60;99.90;;;;;;5042137;28;20040;-73
2022/09/21 11:46:37;;;;;;;0.10;0.10;;;13.60;99.90;;;;;;5042577;28;20041;-73
2022/09/21 11:49:11;;;;;;;0.85;0.13;;;13.50;99.90;;;;;;5037893;28;20037;-71
2022/09/21 11:52:02;;;;;;;4.38;0.17;;;13.50;99.90;;;;;;5044586;28;20032;-71
2022/09/21 11:54:59;;;;;;;0.63;0.40;;;13.40;99.90;;;;;;5034334;28;20083;-71
2022/09/21 11:57:40;;;;;;;0.10;0.10;;;13.30;99.90;;;;;;5023313;28;20528;-71
2022/09/21 12:00:16;;;;;;;0.32;0.10;;;13.30;99.90;;;;;;5038353;28;20071;-71
2022/09/21 12:02:53;;;;;;;0.22;0.20;;;13.20;99.90;;;;;;5021743;28;20037;-71
2022/09/21 12:05:41;;;;;;;4.88;0.28;;;13.20;99.90;;;;;;5041711;28;20485;-71
2022/09/21 12:08:19;;;;;;;0.73;0.20;;;13.20;99.90;;;;;;5040754;28;20033;-71
2022/09/21 12:10:51;;;;;;;0.80;0.10;;;13.20;99.90;;;;;;5041380;28;20029;-71
2022/09/21 12:13:34;;;;;;;0.17;0.00;;;13.20;99.90;;;;;;5040346;28;20116;-71
2022/09/21 12:16:22;;;;;;;0.77;0.22;;;13.20;99.90;;;;;;5039554;28;20128;-71
2022/09/21 12:19:03;;;;;;;0.00;0.00;;;13.10;99.90;;;;;;5042032;28;20157;-71
2022/09/21 12:21:34;;;;;;;0.85;0.10;;;13.10;99.90;;;;;;5038520;28;20036;-71
2022/09/21 12:24:32;;;;;;;1.20;0.25;;;13.00;99.90;;;;;;5040861;28;20437;-71
2022/09/21 12:27:05;;;;;;;0.40;0.13;;;13.00;99.90;;;;;;4969428;28;20146;-71
2022/09/21 12:29:38;;;;;;;1.35;0.40;;;13.00;99.90;;;;;;5041314;28;20095;-71
2022/09/21 12:32:14;;;;;;;0.75;0.45;;;13.00;99.90;;;;;;5004770;28;20367;-71
2022/09/21 12:34:44;;;;;;;0.15;0.10;;;13.00;99.90;;;;;;5043271;28;20090;-71
2022/09/21 12:37:25;;;;;;;0.00;0.00;;;13.00;99.90;;;;;;5037887;28;20546;-71
2022/09/21 12:39:57;;;;;;;0.35;0.10;;;13.10;99.90;;;;;;5040120;28;20116;-71
2022/09/21 12:42:22;;;;;;;1.90;0.30;;;13.10;99.90;;;;;;5011023;28;20064;-71
2022/09/21 12:44:57;;;;;;;0.30;0.20;;;13.20;99.90;;;;;;5039991;28;20487;-71
2022/09/21 12:47:44;;;;;;;0.37;0.27;;;13.20;99.90;;;;;;5039576;28;20044;-71
2022/09/21 12:50:24;;;;;;;0.52;0.20;;;13.20;99.90;;;;;;5037942;28;20565;-71
2022/09/21 12:52:52;;;;;;;4.45;0.25;;;13.20;99.90;;;;;;5039929;28;20025;-71
2022/09/21 12:55:35;;;;;;;0.30;0.20;;;13.10;99.90;;;;;;5036505;28;20091;-71
2022/09/21 12:58:43;;;;;;;0.00;0.00;;;13.10;99.90;;;;;;5037415;28;20051;-71
2022/09/21 13:01:25;;;;;;;1.00;0.10;;;13.10;99.90;;;;;;5030442;28;20041;-71
2022/09/21 13:03:56;;;;;;;2.28;0.40;;;13.10;99.90;;;;;;5002530;28;20064;-71
2022/09/21 13:06:22;;;;;;;0.10;0.10;;;13.10;99.90;;;;;;5037737;28;20435;-71
2022/09/21 13:08:48;;;;;;;2.38;0.40;;;13.10;99.90;;;;;;5042792;28;20088;-71
2022/09/21 13:11:20;;;;;;;0.40;0.15;;;13.10;99.90;;;;;;5032150;28;20051;-71
2022/09/21 13:13:51;;;;;;;1.65;0.10;;;13.10;99.90;;;;;;5035209;28;20418;-71
2022/09/21 13:16:29;;;;;;;0.22;0.00;;;13.10;99.90;;;;;;5039730;28;20040;-71
2022/09/21 13:19:21;;;;;;;0.55;0.10;;;13.10;99.90;;;;;;5038576;28;20045;-71
2022/09/21 13:22:13;;;;;;;1.50;0.68;;;13.20;99.90;;;;;;5001751;28;20191;-71